Time;durP1;ratioP1;P1;durP2;ratioP2;P2;SDS_P1;SDS_P2;PMS_P1;PMS_P2;Temp;Humidity;BMP_temperature;BMP_pressure;BME280_temperature;BME280_humidity;BME280_pressure;Samples;Min_cycle;Max_cycle;Signal;HPM_P1;HPM_P2
2021/01/28 00:00:38;;;;;;;60.37;36.70;;;6.00;99.90;;;;;;5058334;28;20249;-66
2021/01/28 00:03:04;;;;;;;62.73;39.70;;;6.00;99.90;;;;;;5054803;28;20238;-66
2021/01/28 00:05:33;;;;;;;62.80;37.37;;;6.10;99.90;;;;;;5055082;28;20553;-66
2021/01/28 00:08:00;;;;;;;53.67;36.23;;;6.10;99.90;;;;;;5054350;28;20422;-66
2021/01/28 00:10:27;;;;;;;60.33;37.83;;;6.10;99.90;;;;;;5054297;28;20546;-66
2021/01/28 00:12:53;;;;;;;59.03;34.43;;;6.10;99.90;;;;;;5056077;28;20445;-65
2021/01/28 00:15:21;;;;;;;63.20;36.33;;;6.10;99.90;;;;;;5054881;28;20429;-66
2021/01/28 00:17:47;;;;;;;57.90;33.90;;;6.10;99.90;;;;;;5057093;28;20176;-66
2021/01/28 00:20:22;;;;;;;54.23;33.40;;;6.10;99.90;;;;;;5054714;28;20820;-66
2021/01/28 00:22:48;;;;;;;58.77;34.70;;;6.10;99.90;;;;;;5053286;28;20179;-66
2021/01/28 00:25:16;;;;;;;59.33;36.20;;;6.10;99.90;;;;;;5057733;28;20813;-66
2021/01/28 00:27:42;;;;;;;52.10;34.67;;;6.10;99.90;;;;;;5053424;28;20670;-66
2021/01/28 00:30:11;;;;;;;57.70;34.83;;;6.10;99.90;;;;;;5055097;28;20425;-66
2021/01/28 00:32:36;;;;;;;47.53;31.93;;;6.10;99.90;;;;;;5052283;28;20423;-66
2021/01/28 00:35:04;;;;;;;48.30;31.00;;;6.10;99.90;;;;;;5059548;28;20519;-66
2021/01/28 00:37:29;;;;;;;52.83;34.97;;;6.10;99.90;;;;;;5053423;28;20200;-66
2021/01/28 00:39:57;;;;;;;55.93;34.80;;;6.10;99.90;;;;;;5056008;28;20946;-66
2021/01/28 00:42:23;;;;;;;49.80;33.63;;;6.10;99.90;;;;;;5056090;28;20172;-66
2021/01/28 00:44:48;;;;;;;53.93;33.73;;;6.10;99.90;;;;;;5052497;28;20465;-66
2021/01/28 00:47:14;;;;;;;48.73;33.00;;;6.00;99.90;;;;;;5053194;28;20518;-66
2021/01/28 00:49:39;;;;;;;48.23;32.30;;;6.10;99.90;;;;;;5054484;28;20188;-65
2021/01/28 00:52:05;;;;;;;48.50;32.33;;;6.10;99.90;;;;;;5059540;28;20243;-66
2021/01/28 00:54:30;;;;;;;54.77;32.60;;;6.10;99.90;;;;;;5058805;28;20184;-66
2021/01/28 00:56:56;;;;;;;51.50;32.90;;;6.10;99.90;;;;;;5054191;28;20645;-66
2021/01/28 00:59:21;;;;;;;48.93;32.60;;;6.10;99.90;;;;;;5060333;28;20192;-66
2021/01/28 01:01:47;;;;;;;50.23;32.03;;;6.10;99.90;;;;;;5053846;28;20206;-66
2021/01/28 01:04:12;;;;;;;47.30;30.80;;;6.10;99.90;;;;;;5070906;28;20234;-65
2021/01/28 01:06:38;;;;;;;49.97;32.27;;;6.10;99.90;;;;;;5052213;28;20543;-66
2021/01/28 01:09:04;;;;;;;49.80;33.13;;;6.10;99.90;;;;;;5062042;28;20192;-66
2021/01/28 01:11:30;;;;;;;46.30;30.20;;;6.10;99.90;;;;;;5057135;28;20248;-66
2021/01/28 01:13:55;;;;;;;51.67;33.10;;;6.10;99.90;;;;;;5054394;28;20438;-66
2021/01/28 01:16:21;;;;;;;51.57;33.17;;;6.10;99.90;;;;;;5054386;28;20187;-66
2021/01/28 01:18:46;;;;;;;54.97;34.50;;;6.10;99.90;;;;;;5052947;28;20180;-66
2021/01/28 01:21:12;;;;;;;47.57;32.00;;;6.10;99.90;;;;;;5054797;28;20684;-66
2021/01/28 01:23:37;;;;;;;58.33;32.20;;;6.10;99.90;;;;;;5056429;28;20183;-66
2021/01/28 01:26:03;;;;;;;49.70;33.07;;;6.00;99.90;;;;;;5054324;28;20721;-66
2021/01/28 01:28:29;;;;;;;44.30;31.50;;;6.00;99.90;;;;;;5057112;28;20191;-66
2021/01/28 01:30:55;;;;;;;56.80;32.43;;;6.00;99.90;;;;;;5053862;28;20449;-66
2021/01/28 01:33:21;;;;;;;46.67;31.17;;;6.00;99.90;;;;;;5051347;28;20474;-66
2021/01/28 01:35:47;;;;;;;44.50;31.23;;;6.00;99.90;;;;;;5054600;28;20439;-66
2021/01/28 01:38:13;;;;;;;51.90;35.43;;;6.00;99.90;;;;;;5058705;28;20786;-66
2021/01/28 01:40:43;;;;;;;52.23;31.63;;;6.00;99.90;;;;;;5056830;28;20470;-66
2021/01/28 01:43:11;;;;;;;44.83;29.53;;;6.00;99.90;;;;;;5056329;28;20451;-66
2021/01/28 01:45:46;;;;;;;43.57;29.43;;;6.00;99.90;;;;;;5052739;28;20926;-66
2021/01/28 01:48:19;;;;;;;45.57;30.70;;;6.00;99.90;;;;;;5054200;28;20430;-65
2021/01/28 01:51:03;;;;;;;44.60;28.80;;;5.90;99.90;;;;;;5052253;28;20423;-66
2021/01/28 01:53:59;;;;;;;45.33;28.20;;;5.90;99.90;;;;;;5053081;28;20435;-66
2021/01/28 01:56:28;;;;;;;43.07;28.83;;;5.90;99.90;;;;;;5056580;28;20788;-66
2021/01/28 01:58:58;;;;;;;44.73;27.87;;;5.90;99.90;;;;;;5056938;28;20438;-66
2021/01/28 02:01:27;;;;;;;39.53;27.60;;;5.90;99.90;;;;;;5053776;28;20466;-65
2021/01/28 02:03:54;;;;;;;42.33;29.07;;;6.00;99.90;;;;;;5055558;28;20858;-66
2021/01/28 02:06:40;;;;;;;52.37;31.37;;;6.00;99.90;;;;;;5052093;28;20469;-66
2021/01/28 02:09:09;;;;;;;37.37;27.70;;;6.00;99.90;;;;;;5053249;28;20423;-66
2021/01/28 02:11:35;;;;;;;39.33;26.00;;;6.00;99.90;;;;;;5054796;28;21194;-66
2021/01/28 02:14:02;;;;;;;45.90;27.30;;;6.00;99.90;;;;;;5057529;28;20434;-66
2021/01/28 02:16:32;;;;;;;42.00;27.37;;;6.00;99.90;;;;;;5055321;28;20527;-66
2021/01/28 02:19:00;;;;;;;39.73;24.70;;;6.00;99.90;;;;;;5053624;28;20419;-66
2021/01/28 02:21:34;;;;;;;42.50;27.33;;;6.00;99.90;;;;;;5057830;28;20434;-65
2021/01/28 02:24:14;;;;;;;40.60;26.40;;;6.00;99.90;;;;;;5055637;28;20463;-66
2021/01/28 02:26:43;;;;;;;37.67;27.30;;;6.00;99.90;;;;;;5060356;28;20520;-66
2021/01/28 02:29:09;;;;;;;35.80;26.07;;;6.00;99.90;;;;;;5057241;28;20437;-66
2021/01/28 02:31:37;;;;;;;39.03;26.10;;;6.00;99.90;;;;;;5051887;28;20495;-66
2021/01/28 02:34:06;;;;;;;35.23;25.23;;;6.00;99.90;;;;;;5053311;28;20818;-66
2021/01/28 02:36:35;;;;;;;39.63;24.30;;;6.00;99.90;;;;;;5052090;28;20428;-66
2021/01/28 02:39:04;;;;;;;42.87;25.77;;;6.00;99.90;;;;;;5054528;28;20969;-66
2021/01/28 02:41:30;;;;;;;38.47;25.37;;;6.00;99.90;;;;;;5061463;28;20437;-65
2021/01/28 02:43:57;;;;;;;35.63;23.67;;;6.00;99.90;;;;;;5052853;28;20462;-66
2021/01/28 02:46:23;;;;;;;41.93;26.30;;;6.00;99.90;;;;;;5052706;28;20210;-66
2021/01/28 02:48:50;;;;;;;41.70;28.47;;;6.00;99.90;;;;;;5055831;28;20889;-66
2021/01/28 02:51:16;;;;;;;48.87;31.10;;;6.00;99.90;;;;;;5052665;28;20640;-66
2021/01/28 02:53:45;;;;;;;52.30;36.10;;;6.00;99.90;;;;;;5051378;28;20538;-65
2021/01/28 02:56:11;;;;;;;46.77;33.00;;;6.00;99.90;;;;;;5056844;28;20937;-66
2021/01/28 02:58:37;;;;;;;39.70;25.40;;;6.00;99.90;;;;;;5053080;28;20517;-66
2021/01/28 03:01:04;;;;;;;39.93;25.30;;;5.90;99.90;;;;;;5061061;28;21006;-66
2021/01/28 03:03:30;;;;;;;36.13;25.23;;;5.90;99.90;;;;;;5061533;28;20448;-66
2021/01/28 03:05:56;;;;;;;32.47;22.50;;;6.00;99.90;;;;;;5060245;28;20469;-66
2021/01/28 03:08:23;;;;;;;40.13;25.67;;;6.00;99.90;;;;;;5055064;28;20268;-65
2021/01/28 03:10:50;;;;;;;35.03;23.40;;;6.00;99.90;;;;;;5056957;28;20491;-66
2021/01/28 03:13:15;;;;;;;47.43;24.77;;;6.00;99.90;;;;;;5055786;28;20472;-66
2021/01/28 03:15:41;;;;;;;36.43;24.03;;;6.00;99.90;;;;;;5055042;28;20784;-66
2021/01/28 03:18:07;;;;;;;32.00;22.40;;;6.00;99.90;;;;;;5061751;28;20309;-65
2021/01/28 03:20:32;;;;;;;31.37;22.33;;;5.90;99.90;;;;;;5057603;28;20618;-65
2021/01/28 03:22:58;;;;;;;33.40;22.73;;;5.90;99.90;;;;;;5058071;28;20638;-65
2021/01/28 03:25:25;;;;;;;31.23;22.97;;;5.80;99.90;;;;;;5058172;28;20361;-65
2021/01/28 03:27:51;;;;;;;34.07;20.30;;;5.70;99.90;;;;;;5059877;28;20180;-65
2021/01/28 03:30:26;;;;;;;34.63;21.90;;;5.70;99.90;;;;;;5054923;28;20872;-65
2021/01/28 03:32:52;;;;;;;34.83;23.23;;;5.80;99.90;;;;;;5054898;28;20418;-65
2021/01/28 03:35:19;;;;;;;45.50;24.13;;;5.80;99.90;;;;;;5059818;28;21033;-65
2021/01/28 03:37:46;;;;;;;34.03;22.37;;;5.80;99.90;;;;;;5057070;28;20263;-64
2021/01/28 03:40:12;;;;;;;29.80;22.80;;;5.80;99.90;;;;;;5055692;28;20822;-64
2021/01/28 03:42:38;;;;;;;32.53;22.00;;;5.80;99.90;;;;;;5051711;28;20959;-65
2021/01/28 03:45:05;;;;;;;35.10;24.50;;;5.90;99.90;;;;;;5054369;28;20461;-65
2021/01/28 03:47:31;;;;;;;34.23;20.77;;;5.80;99.90;;;;;;5055215;28;20215;-64
2021/01/28 03:49:56;;;;;;;31.63;21.50;;;5.80;99.90;;;;;;5055441;28;20458;-64
2021/01/28 03:52:22;;;;;;;29.97;21.80;;;5.80;99.90;;;;;;5054006;28;20333;-64
2021/01/28 03:54:47;;;;;;;32.83;21.80;;;5.70;99.90;;;;;;5059430;28;20180;-64
2021/01/28 03:57:13;;;;;;;29.23;19.83;;;5.70;99.90;;;;;;5062828;28;20519;-64
2021/01/28 03:59:39;;;;;;;28.57;19.80;;;5.70;99.90;;;;;;5055148;28;20192;-64
2021/01/28 04:02:04;;;;;;;26.77;20.07;;;5.60;99.90;;;;;;5054697;28;20241;-64
2021/01/28 04:04:30;;;;;;;26.83;17.93;;;5.60;99.90;;;;;;5059763;28;20208;-64
2021/01/28 04:06:55;;;;;;;33.27;21.67;;;5.60;99.90;;;;;;5058041;28;20186;-65
2021/01/28 04:09:20;;;;;;;26.97;19.60;;;5.60;99.90;;;;;;5060196;28;20187;-65
2021/01/28 04:11:46;;;;;;;31.10;20.03;;;5.60;99.90;;;;;;5053458;28;20254;-65
2021/01/28 04:14:11;;;;;;;30.53;19.30;;;5.50;99.90;;;;;;5054830;28;20195;-65
2021/01/28 04:16:37;;;;;;;27.57;17.67;;;5.50;99.90;;;;;;5057982;28;20719;-64
2021/01/28 04:19:03;;;;;;;27.27;18.03;;;5.50;99.90;;;;;;5057883;28;20221;-64
2021/01/28 04:21:28;;;;;;;24.60;17.97;;;5.50;99.90;;;;;;5054585;28;20417;-64
2021/01/28 04:23:54;;;;;;;23.43;16.83;;;5.50;99.90;;;;;;5056834;28;20183;-64
2021/01/28 04:26:19;;;;;;;22.33;15.53;;;5.50;99.90;;;;;;5059412;28;20301;-64
2021/01/28 04:28:45;;;;;;;22.90;16.33;;;5.40;99.90;;;;;;5059638;28;20191;-64
2021/01/28 04:31:10;;;;;;;28.00;17.90;;;5.40;99.90;;;;;;5054309;28;20175;-64
2021/01/28 04:33:36;;;;;;;20.37;15.40;;;5.40;99.90;;;;;;5053921;28;20219;-65
2021/01/28 04:36:02;;;;;;;24.10;17.20;;;5.40;99.90;;;;;;5056516;28;20792;-65
2021/01/28 04:38:28;;;;;;;21.23;17.20;;;5.40;99.90;;;;;;5054594;28;20683;-65
2021/01/28 04:41:06;;;;;;;20.73;16.23;;;5.40;99.90;;;;;;5050865;28;20435;-64
2021/01/28 04:43:33;;;;;;;23.20;14.70;;;5.40;99.90;;;;;;5060043;28;20201;-64
2021/01/28 04:46:02;;;;;;;15.70;13.70;;;5.40;99.90;;;;;;5054020;28;20481;-64
2021/01/28 04:48:30;;;;;;;16.10;12.97;;;5.40;99.90;;;;;;5062512;28;20438;-64
2021/01/28 04:50:57;;;;;;;14.90;13.23;;;5.40;99.90;;;;;;5054340;28;20450;-65
2021/01/28 04:53:31;;;;;;;17.63;14.60;;;5.40;99.90;;;;;;5053373;28;20419;-64
2021/01/28 04:56:00;;;;;;;15.30;12.77;;;5.40;99.90;;;;;;5060809;28;20421;-64
2021/01/28 04:58:26;;;;;;;13.97;12.30;;;5.40;99.90;;;;;;5055718;28;20445;-64
2021/01/28 05:00:52;;;;;;;13.63;12.00;;;5.40;99.90;;;;;;5058489;28;20426;-65
2021/01/28 05:03:41;;;;;;;15.20;12.50;;;5.40;99.90;;;;;;5052986;28;20472;-65
2021/01/28 05:06:08;;;;;;;15.90;13.07;;;5.50;99.90;;;;;;5052878;28;20185;-64
2021/01/28 05:08:33;;;;;;;15.60;12.63;;;5.50;99.90;;;;;;5052063;28;20459;-64
2021/01/28 05:10:59;;;;;;;13.50;12.10;;;5.50;99.90;;;;;;5054410;28;20431;-65
2021/01/28 05:13:34;;;;;;;9.93;8.93;;;5.50;99.90;;;;;;5054207;28;20204;-64
2021/01/28 05:16:23;;;;;;;12.70;10.77;;;5.40;99.90;;;;;;5053530;28;20549;-64
2021/01/28 05:19:04;;;;;;;12.70;10.73;;;5.30;99.90;;;;;;5059948;28;20431;-64
2021/01/28 05:21:42;;;;;;;13.13;10.57;;;5.30;99.90;;;;;;5055108;28;20437;-64
2021/01/28 05:24:21;;;;;;;12.97;9.97;;;5.40;99.90;;;;;;5055710;28;20469;-64
2021/01/28 05:26:47;;;;;;;11.87;10.73;;;5.40;99.90;;;;;;5060883;28;20579;-64
2021/01/28 05:29:29;;;;;;;10.90;9.80;;;5.40;99.90;;;;;;5052576;28;20513;-64
2021/01/28 05:31:59;;;;;;;9.13;8.20;;;5.40;99.90;;;;;;5071469;28;20187;-64
2021/01/28 05:34:34;;;;;;;9.57;8.67;;;5.40;99.90;;;;;;5051581;28;20506;-64
2021/01/28 05:37:04;;;;;;;10.10;9.10;;;5.40;99.90;;;;;;5055799;28;20429;-64
2021/01/28 05:39:41;;;;;;;7.67;6.87;;;5.40;99.90;;;;;;5054827;28;20500;-64
2021/01/28 05:42:13;;;;;;;7.00;6.30;;;5.40;99.90;;;;;;5051275;28;20875;-65
2021/01/28 05:44:40;;;;;;;7.90;7.10;;;5.40;99.90;;;;;;5052346;28;20458;-65
2021/01/28 05:47:25;;;;;;;7.60;6.80;;;5.30;99.90;;;;;;5053009;28;20434;-65
2021/01/28 05:49:51;;;;;;;7.90;7.10;;;5.30;99.90;;;;;;5053411;28;20439;-64
2021/01/28 05:52:30;;;;;;;7.00;6.40;;;5.30;99.90;;;;;;5057318;28;20434;-65
2021/01/28 05:55:13;;;;;;;8.50;7.07;;;5.30;99.90;;;;;;5056043;28;20437;-64
2021/01/28 05:58:03;;;;;;;6.93;5.97;;;5.40;99.90;;;;;;5051893;28;20441;-65
2021/01/28 06:00:46;;;;;;;8.23;7.00;;;5.40;99.90;;;;;;5060198;28;20980;-65
2021/01/28 06:03:34;;;;;;;8.70;6.80;;;5.40;99.90;;;;;;5055783;28;20790;-65
2021/01/28 06:06:38;;;;;;;6.70;6.00;;;5.40;99.90;;;;;;5057484;28;20465;-64
2021/01/28 06:09:28;;;;;;;7.07;6.47;;;5.40;99.90;;;;;;5056206;28;20464;-65
2021/01/28 06:12:07;;;;;;;7.17;6.43;;;5.40;99.90;;;;;;5053623;28;20516;-65
2021/01/28 06:14:55;;;;;;;6.93;6.10;;;5.40;99.90;;;;;;5053509;28;20456;-65
2021/01/28 06:17:27;;;;;;;6.80;6.10;;;5.40;99.90;;;;;;5055379;28;20915;-64
2021/01/28 06:20:13;;;;;;;6.30;5.23;;;5.40;99.90;;;;;;5052855;28;20433;-64
2021/01/28 06:23:15;;;;;;;6.20;5.60;;;5.40;99.90;;;;;;5056987;28;20500;-65
2021/01/28 06:26:02;;;;;;;6.73;6.10;;;5.50;99.90;;;;;;5054302;28;20522;-65
2021/01/28 06:28:32;;;;;;;5.97;5.37;;;5.50;99.90;;;;;;5053270;28;20434;-64
2021/01/28 06:31:36;;;;;;;6.07;5.47;;;5.30;99.90;;;;;;5050663;28;20439;-65
2021/01/28 06:34:06;;;;;;;6.60;5.87;;;5.30;99.90;;;;;;5061435;28;21016;-65
2021/01/28 06:36:57;;;;;;;6.30;5.70;;;5.30;99.90;;;;;;5056512;28;20528;-65
2021/01/28 06:39:34;;;;;;;5.80;5.20;;;5.30;99.90;;;;;;5056669;28;20803;-65
2021/01/28 06:42:11;;;;;;;5.70;5.13;;;5.30;99.90;;;;;;5057208;28;21161;-65
2021/01/28 06:45:01;;;;;;;6.03;5.43;;;5.30;99.90;;;;;;5056735;28;20527;-65
2021/01/28 06:47:56;;;;;;;6.37;5.77;;;5.30;99.90;;;;;;5057377;28;20421;-64
2021/01/28 06:50:33;;;;;;;7.13;5.07;;;5.30;99.90;;;;;;5056814;28;20788;-64
2021/01/28 06:53:11;;;;;;;6.43;5.23;;;5.30;99.90;;;;;;5056474;28;20510;-64
2021/01/28 06:55:41;;;;;;;4.70;4.23;;;5.20;99.90;;;;;;5056647;28;20702;-64
2021/01/28 06:58:12;;;;;;;5.17;4.70;;;5.20;99.90;;;;;;5055203;28;20438;-65
2021/01/28 07:00:59;;;;;;;4.63;4.00;;;5.20;99.90;;;;;;5070571;28;20476;-65
2021/01/28 07:03:34;;;;;;;4.70;4.20;;;5.20;99.90;;;;;;5077008;28;20936;-65
2021/01/28 07:06:13;;;;;;;5.60;4.37;;;5.20;99.90;;;;;;5055156;28;20465;-65
2021/01/28 07:08:47;;;;;;;4.80;4.30;;;5.20;99.90;;;;;;5058031;28;20424;-65
2021/01/28 07:11:28;;;;;;;5.33;4.83;;;5.20;99.90;;;;;;5055988;28;20520;-65
2021/01/28 07:13:54;;;;;;;5.27;4.77;;;5.20;99.90;;;;;;5053635;28;20431;-64
2021/01/28 07:16:27;;;;;;;4.60;4.20;;;5.20;99.90;;;;;;5057039;28;20532;-64
2021/01/28 07:18:55;;;;;;;5.07;4.57;;;5.20;99.90;;;;;;5055984;28;20434;-64
2021/01/28 07:21:33;;;;;;;4.50;3.97;;;5.20;99.90;;;;;;5055333;28;20438;-65
2021/01/28 07:24:01;;;;;;;4.87;4.37;;;5.20;99.90;;;;;;5057002;28;20430;-65
2021/01/28 07:26:50;;;;;;;4.03;3.63;;;5.10;99.90;;;;;;5063220;28;20902;-65
2021/01/28 07:29:27;;;;;;;4.63;4.23;;;5.10;99.90;;;;;;5058549;28;20731;-64
2021/01/28 07:31:53;;;;;;;5.00;4.50;;;5.20;99.90;;;;;;5063554;28;20441;-65
2021/01/28 07:34:19;;;;;;;4.40;4.00;;;5.20;99.90;;;;;;5060192;28;20484;-65
2021/01/28 07:36:49;;;;;;;6.60;4.10;;;5.20;99.90;;;;;;5062051;28;20608;-65
2021/01/28 07:39:29;;;;;;;5.53;4.93;;;5.20;99.90;;;;;;5054514;28;20237;-65
2021/01/28 07:42:04;;;;;;;4.50;4.10;;;5.20;99.90;;;;;;5056078;28;20432;-65
2021/01/28 07:44:38;;;;;;;7.00;4.57;;;5.20;99.90;;;;;;5054772;28;20993;-65
2021/01/28 07:47:12;;;;;;;9.90;5.30;;;5.20;99.90;;;;;;5055470;28;20422;-65
2021/01/28 07:49:37;;;;;;;11.07;5.70;;;5.20;99.90;;;;;;5055404;28;20434;-64
2021/01/28 07:52:03;;;;;;;6.37;5.57;;;5.20;99.90;;;;;;5059031;28;20531;-65
2021/01/28 07:54:28;;;;;;;6.53;4.67;;;5.10;99.90;;;;;;5053611;28;20782;-65
2021/01/28 07:56:58;;;;;;;4.73;3.97;;;5.10;99.90;;;;;;5065573;28;20188;-65
2021/01/28 07:59:35;;;;;;;6.00;4.20;;;5.10;99.90;;;;;;5058974;28;20223;-65
2021/01/28 08:02:19;;;;;;;6.30;4.77;;;5.10;99.90;;;;;;5062467;28;20993;-65
2021/01/28 08:04:46;;;;;;;7.73;5.80;;;5.00;99.90;;;;;;5058085;28;20457;-65
2021/01/28 08:07:19;;;;;;;6.10;4.57;;;5.00;99.90;;;;;;5054937;28;20516;-65
2021/01/28 08:09:52;;;;;;;6.90;4.67;;;5.00;99.90;;;;;;5054361;28;20466;-65
2021/01/28 08:12:34;;;;;;;6.90;5.40;;;5.00;99.90;;;;;;5054932;28;20518;-65
2021/01/28 08:15:08;;;;;;;5.20;4.70;;;5.00;99.90;;;;;;5059413;28;20523;-65
2021/01/28 08:17:33;;;;;;;7.67;5.30;;;5.00;99.90;;;;;;5054872;28;20637;-65
2021/01/28 08:20:20;;;;;;;5.47;4.67;;;5.00;99.90;;;;;;5057342;28;20521;-65
2021/01/28 08:23:05;;;;;;;6.10;5.23;;;5.00;99.90;;;;;;5068673;28;20180;-65
2021/01/28 08:25:36;;;;;;;5.40;4.57;;;5.10;99.90;;;;;;5058774;28;20491;-65
2021/01/28 08:28:15;;;;;;;5.33;4.80;;;5.00;99.90;;;;;;5055161;28;20431;-65
2021/01/28 08:30:42;;;;;;;6.63;4.97;;;5.00;99.90;;;;;;5053599;28;20431;-65
2021/01/28 08:33:13;;;;;;;6.03;4.87;;;5.00;99.90;;;;;;5053007;28;20940;-65
2021/01/28 08:35:46;;;;;;;5.70;4.80;;;5.00;99.90;;;;;;5059633;28;20477;-65
2021/01/28 08:38:14;;;;;;;7.80;5.10;;;5.10;99.90;;;;;;5055359;28;20438;-65
2021/01/28 08:40:41;;;;;;;5.60;4.47;;;5.10;99.90;;;;;;5055145;28;20485;-65
2021/01/28 08:43:19;;;;;;;4.50;4.00;;;5.10;99.90;;;;;;5052642;28;20473;-65
2021/01/28 08:45:46;;;;;;;5.77;4.10;;;5.10;99.90;;;;;;5053699;28;20780;-65
2021/01/28 08:48:15;;;;;;;4.63;3.90;;;5.10;99.90;;;;;;5052377;28;20457;-65
2021/01/28 08:50:42;;;;;;;3.97;3.23;;;5.10;99.90;;;;;;5054334;28;20481;-65
2021/01/28 08:53:15;;;;;;;4.50;4.00;;;5.10;99.90;;;;;;5056842;28;20505;-65
2021/01/28 08:55:41;;;;;;;3.77;3.47;;;5.10;99.90;;;;;;5057629;28;20433;-65
2021/01/28 08:58:31;;;;;;;4.80;4.20;;;5.10;99.90;;;;;;5053761;28;20462;-65
2021/01/28 09:01:02;;;;;;;4.30;3.93;;;5.10;99.90;;;;;;5054083;28;20189;-65
2021/01/28 09:03:33;;;;;;;3.33;3.00;;;5.10;99.90;;;;;;5057694;28;20438;-66
2021/01/28 09:06:00;;;;;;;6.30;4.40;;;5.00;99.90;;;;;;5054430;28;20469;-65
2021/01/28 09:08:35;;;;;;;4.00;3.60;;;5.00;99.90;;;;;;5053966;28;20517;-66
2021/01/28 09:11:28;;;;;;;4.13;3.73;;;5.10;99.90;;;;;;5053139;28;20430;-65
2021/01/28 09:14:17;;;;;;;3.87;3.57;;;5.10;99.90;;;;;;5051732;28;20588;-65
2021/01/28 09:17:01;;;;;;;4.07;3.50;;;5.10;99.90;;;;;;5053616;28;20425;-65
2021/01/28 09:19:29;;;;;;;3.57;3.27;;;5.10;99.90;;;;;;5053180;28;20431;-66
2021/01/28 09:21:58;;;;;;;3.53;3.23;;;5.10;99.90;;;;;;5053947;28;20426;-66
2021/01/28 09:24:42;;;;;;;4.63;3.70;;;5.10;99.90;;;;;;5053074;28;21046;-66
2021/01/28 09:27:22;;;;;;;4.40;3.70;;;5.10;99.90;;;;;;5060009;28;20747;-66
2021/01/28 09:29:49;;;;;;;3.57;3.10;;;5.10;99.90;;;;;;5052792;28;20861;-66
2021/01/28 09:32:32;;;;;;;5.23;3.87;;;5.10;99.90;;;;;;5054828;28;20437;-66
2021/01/28 09:35:22;;;;;;;6.33;3.80;;;5.10;99.90;;;;;;5058145;28;20561;-66
2021/01/28 09:38:12;;;;;;;4.00;3.23;;;5.20;99.90;;;;;;5053553;28;20422;-66
2021/01/28 09:40:40;;;;;;;5.47;3.17;;;5.20;99.90;;;;;;5053161;28;20458;-66
2021/01/28 09:43:25;;;;;;;3.93;3.53;;;5.20;99.90;;;;;;5053164;28;20788;-66
2021/01/28 09:46:09;;;;;;;4.07;2.97;;;5.20;99.90;;;;;;5050121;28;20469;-66
2021/01/28 09:48:35;;;;;;;4.10;3.70;;;5.20;99.90;;;;;;5056777;28;20421;-66
2021/01/28 09:51:06;;;;;;;3.93;3.10;;;5.20;99.90;;;;;;5073688;28;20839;-66
2021/01/28 09:53:32;;;;;;;5.27;3.90;;;5.20;99.90;;;;;;5053279;28;20189;-66
2021/01/28 09:55:57;;;;;;;3.53;3.00;;;5.20;99.90;;;;;;5055317;28;20711;-66
2021/01/28 09:58:23;;;;;;;4.90;3.10;;;5.30;99.90;;;;;;5054145;28;20430;-66
2021/01/28 10:00:50;;;;;;;4.53;2.73;;;5.30;99.90;;;;;;5054902;28;20578;-66
2021/01/28 10:03:16;;;;;;;2.93;2.63;;;5.30;99.90;;;;;;5057999;28;20194;-66
2021/01/28 10:05:42;;;;;;;7.47;3.30;;;5.30;99.90;;;;;;5059720;28;20470;-67
2021/01/28 10:08:08;;;;;;;2.90;2.70;;;5.30;99.90;;;;;;5054109;28;20785;-66
2021/01/28 10:10:34;;;;;;;3.60;3.23;;;5.30;99.90;;;;;;5050542;28;20187;-67
2021/01/28 10:13:03;;;;;;;3.40;3.10;;;5.30;99.90;;;;;;5053745;28;20795;-66
2021/01/28 10:15:29;;;;;;;3.90;3.60;;;5.40;99.90;;;;;;5054369;28;20465;-66
2021/01/28 10:17:56;;;;;;;2.80;2.60;;;5.40;99.90;;;;;;5053100;28;20442;-67
2021/01/28 10:20:22;;;;;;;3.10;2.90;;;5.40;99.90;;;;;;5052855;28;20688;-66
2021/01/28 10:22:47;;;;;;;3.33;2.77;;;5.50;99.90;;;;;;5051327;28;20955;-66
2021/01/28 10:25:15;;;;;;;4.07;3.43;;;5.50;99.90;;;;;;5054039;28;21184;-66
2021/01/28 10:27:42;;;;;;;4.53;3.07;;;5.50;99.90;;;;;;5051891;28;20180;-66
2021/01/28 10:30:10;;;;;;;3.53;3.10;;;5.50;99.90;;;;;;5051187;28;20438;-66
2021/01/28 10:32:36;;;;;;;3.60;3.30;;;5.50;99.90;;;;;;5052695;28;20430;-66
2021/01/28 10:35:02;;;;;;;4.17;3.80;;;5.50;99.90;;;;;;5054241;28;20469;-66
2021/01/28 10:37:28;;;;;;;3.50;3.13;;;5.50;99.90;;;;;;5052125;28;20664;-66
2021/01/28 10:39:53;;;;;;;5.13;3.40;;;5.50;99.90;;;;;;5051624;28;20520;-66
2021/01/28 10:42:31;;;;;;;3.30;2.80;;;5.50;99.90;;;;;;5056527;28;20183;-66
2021/01/28 10:44:56;;;;;;;3.30;3.00;;;5.50;99.90;;;;;;5052536;28;20200;-66
2021/01/28 10:47:22;;;;;;;2.97;2.77;;;5.50;99.90;;;;;;5066952;28;20484;-66
2021/01/28 10:49:47;;;;;;;2.70;2.47;;;5.60;99.90;;;;;;5054167;28;20649;-66
2021/01/28 10:52:13;;;;;;;3.23;2.93;;;5.60;99.90;;;;;;5051410;28;20181;-66
2021/01/28 10:54:38;;;;;;;4.30;3.90;;;5.60;99.90;;;;;;5052589;28;20287;-66
2021/01/28 10:57:04;;;;;;;4.83;4.33;;;5.60;99.90;;;;;;5056496;28;20192;-66
2021/01/28 10:59:30;;;;;;;3.80;3.40;;;5.60;99.90;;;;;;5052954;28;20670;-66
2021/01/28 11:01:56;;;;;;;4.10;3.47;;;5.60;99.90;;;;;;5058389;28;20422;-66
2021/01/28 11:04:22;;;;;;;5.33;4.20;;;5.70;99.90;;;;;;5054641;28;20239;-66
2021/01/28 11:06:47;;;;;;;7.10;6.40;;;5.70;99.90;;;;;;5051108;28;20507;-66
2021/01/28 11:09:13;;;;;;;4.53;4.10;;;5.70;99.90;;;;;;5053246;28;20180;-66
2021/01/28 11:11:38;;;;;;;4.77;4.23;;;5.70;99.90;;;;;;5049730;28;20180;-66
2021/01/28 11:14:04;;;;;;;5.07;4.57;;;5.70;99.90;;;;;;5052539;28;20176;-67
2021/01/28 11:16:33;;;;;;;9.00;4.80;;;5.70;99.90;;;;;;5057109;28;20642;-66
2021/01/28 11:18:59;;;;;;;4.90;4.50;;;5.70;99.90;;;;;;5056390;28;20185;-66
2021/01/28 11:21:25;;;;;;;4.60;4.20;;;5.70;99.90;;;;;;5052199;28;20524;-66
2021/01/28 11:23:50;;;;;;;5.70;5.20;;;5.70;99.90;;;;;;5053235;28;20234;-66
2021/01/28 11:26:16;;;;;;;8.37;7.53;;;5.70;99.90;;;;;;5058009;28;20212;-66
2021/01/28 11:28:42;;;;;;;6.60;5.90;;;5.70;99.90;;;;;;5055493;28;20181;-66
2021/01/28 11:31:08;;;;;;;6.40;5.80;;;5.70;99.90;;;;;;5059394;28;20417;-66
2021/01/28 11:33:34;;;;;;;6.60;6.00;;;5.70;99.90;;;;;;5053478;28;20530;-66
2021/01/28 11:36:00;;;;;;;6.70;6.10;;;5.70;99.90;;;;;;5059674;28;20604;-66
2021/01/28 11:38:26;;;;;;;5.00;4.60;;;5.80;99.90;;;;;;5058420;28;20439;-66
2021/01/28 11:40:52;;;;;;;7.50;6.50;;;5.70;99.90;;;;;;5060110;28;20435;-66
2021/01/28 11:43:17;;;;;;;5.67;5.17;;;5.70;99.90;;;;;;5068951;28;20222;-67
2021/01/28 11:45:43;;;;;;;5.23;4.70;;;5.80;99.90;;;;;;5056076;28;20486;-66
2021/01/28 11:48:09;;;;;;;6.00;5.43;;;5.80;99.90;;;;;;5055049;28;20189;-66
2021/01/28 11:50:35;;;;;;;7.57;6.87;;;5.80;99.90;;;;;;5057683;28;20270;-66
2021/01/28 11:53:00;;;;;;;6.90;6.20;;;5.80;99.90;;;;;;5055099;28;20206;-66
2021/01/28 11:55:28;;;;;;;6.10;5.50;;;5.90;99.90;;;;;;5054140;28;20458;-66
2021/01/28 11:57:54;;;;;;;6.83;5.47;;;5.90;99.90;;;;;;5053389;28;20533;-66
2021/01/28 12:00:21;;;;;;;5.47;5.03;;;5.90;99.90;;;;;;5058090;28;21167;-67
2021/01/28 12:02:47;;;;;;;5.20;4.80;;;5.90;99.90;;;;;;5054869;28;20456;-67
2021/01/28 12:05:14;;;;;;;6.00;5.30;;;5.90;99.90;;;;;;5056538;28;21112;-66
2021/01/28 12:07:40;;;;;;;6.07;5.47;;;5.90;99.90;;;;;;5054700;28;20195;-66
2021/01/28 12:10:08;;;;;;;5.70;5.20;;;6.00;99.90;;;;;;5060648;28;20430;-66
2021/01/28 12:12:34;;;;;;;5.77;5.17;;;6.00;99.90;;;;;;5055559;28;20176;-66
2021/01/28 12:15:00;;;;;;;6.53;5.93;;;6.00;99.90;;;;;;5054332;28;20439;-66
2021/01/28 12:17:25;;;;;;;5.50;5.10;;;6.10;99.90;;;;;;5054642;28;20492;-66
2021/01/28 12:19:51;;;;;;;6.17;5.57;;;6.10;99.90;;;;;;5055081;28;20188;-66
2021/01/28 12:22:16;;;;;;;5.83;5.27;;;6.10;99.90;;;;;;5054703;28;20196;-66
2021/01/28 12:24:42;;;;;;;7.20;6.60;;;6.10;99.90;;;;;;5052949;28;20236;-66
2021/01/28 12:27:08;;;;;;;6.53;5.97;;;6.10;99.90;;;;;;5066382;28;20782;-66
2021/01/28 12:29:33;;;;;;;7.90;7.20;;;6.20;99.90;;;;;;5056925;28;20183;-66
2021/01/28 12:31:59;;;;;;;6.73;6.13;;;6.20;99.90;;;;;;5060852;28;20180;-66
2021/01/28 12:34:28;;;;;;;6.40;5.63;;;6.30;99.90;;;;;;5059060;28;20600;-66
2021/01/28 12:36:54;;;;;;;8.60;5.93;;;6.30;99.90;;;;;;5056899;28;20184;-66
2021/01/28 12:39:20;;;;;;;6.97;5.87;;;6.30;99.90;;;;;;5055192;28;20464;-66
2021/01/28 12:41:45;;;;;;;6.30;5.80;;;6.30;99.90;;;;;;5059747;28;20431;-66
2021/01/28 12:44:11;;;;;;;7.20;6.50;;;6.30;99.90;;;;;;5053842;28;20444;-65
2021/01/28 12:46:37;;;;;;;9.87;8.90;;;6.30;99.90;;;;;;5054470;28;20664;-66
2021/01/28 12:49:02;;;;;;;8.83;6.67;;;6.30;99.90;;;;;;5054478;28;20267;-66
2021/01/28 12:51:28;;;;;;;7.70;6.90;;;6.30;99.90;;;;;;5055592;28;20184;-66
2021/01/28 12:53:54;;;;;;;9.33;7.70;;;6.30;99.90;;;;;;5053297;28;20431;-65
2021/01/28 12:56:19;;;;;;;8.23;6.90;;;6.30;99.90;;;;;;5054518;28;20572;-66
2021/01/28 12:58:45;;;;;;;6.83;6.00;;;6.30;99.90;;;;;;5052620;28;20739;-65
2021/01/28 13:01:10;;;;;;;7.37;6.77;;;6.40;99.90;;;;;;5053270;28;20188;-66
2021/01/28 13:03:36;;;;;;;7.43;6.73;;;6.30;99.90;;;;;;5055481;28;20207;-66